createdAt,value
2016-11-03T00:00:18.386Z,25.21
2016-11-03T00:01:20.247Z,25.21
2016-11-03T00:02:18.850Z,25.14
2016-11-03T00:03:18.919Z,25.2
2016-11-03T00:04:18.129Z,25.09
2016-11-03T00:05:18.974Z,25.15
2016-11-03T00:06:18.992Z,25.17
2016-11-03T00:07:19.715Z,25.27
2016-11-03T00:08:17.711Z,25.23
2016-11-03T00:09:19.063Z,25.24
2016-11-03T00:10:18.124Z,25.33
2016-11-03T00:11:19.159Z,25.21
2016-11-03T00:12:20.682Z,25.27
2016-11-03T00:13:18.545Z,25.2
2016-11-03T00:14:19.721Z,25.18
2016-11-03T00:15:19.456Z,25.15
2016-11-03T00:16:18.716Z,25.17
2016-11-03T00:17:19.464Z,25.1
2016-11-03T00:18:19.260Z,25.17
2016-11-03T00:19:20.227Z,25.21
2016-11-03T00:20:18.116Z,25.17
2016-11-03T00:21:18.947Z,25.2
2016-11-03T00:22:18.961Z,25.06
2016-11-03T00:23:20.294Z,25.18
2016-11-03T00:24:19.512Z,25.14
2016-11-03T00:25:19.196Z,25.15
2016-11-03T00:26:18.442Z,25.14
2016-11-03T00:27:19.191Z,25.06
2016-11-03T00:28:18.842Z,25.08
2016-11-03T00:29:19.889Z,25.13
2016-11-03T00:30:17.875Z,25.08
2016-11-03T00:31:19.022Z,25.17
2016-11-03T00:32:20.080Z,25.08
2016-11-03T00:33:19.436Z,25.08
2016-11-03T00:34:20.965Z,25.15
2016-11-03T00:35:18.761Z,25.14
2016-11-03T00:36:19.632Z,25.15
2016-11-03T00:37:19.355Z,25.17
2016-11-03T00:38:20.325Z,25.06
2016-11-03T00:39:18.299Z,25.18
2016-11-03T00:40:19.534Z,25.15
2016-11-03T00:41:20.447Z,25.13
2016-11-03T00:42:18.320Z,25.13
2016-11-03T00:43:19.597Z,25.2
2016-11-03T00:44:20.576Z,25.15
2016-11-03T00:45:18.445Z,25.17
2016-11-03T00:46:19.722Z,25.18
2016-11-03T00:47:21.106Z,25.09
2016-11-03T00:48:18.558Z,25.06
2016-11-03T00:49:19.740Z,25.09
2016-11-03T00:50:19.429Z,25.08
2016-11-03T00:51:18.377Z,25.08
2016-11-03T00:52:18.029Z,25.13
2016-11-03T00:53:19.090Z,25.06
2016-11-03T00:54:18.858Z,25.06
2016-11-03T00:55:19.655Z,25.05
2016-11-03T00:56:21.546Z,25.08
2016-11-03T00:57:18.982Z,25.05
2016-11-03T00:58:18.391Z,25.05
2016-11-03T00:59:19.458Z,25.02
2016-11-03T01:00:19.107Z,24.99
2016-11-03T01:01:19.786Z,25
2016-11-03T01:02:19.430Z,24.96
2016-11-03T01:03:19.274Z,25
2016-11-03T01:04:18.541Z,24.98
2016-11-03T01:05:20.204Z,25.02
2016-11-03T01:06:20.809Z,24.98
2016-11-03T01:07:18.759Z,25.02
2016-11-03T01:08:19.823Z,25.02
2016-11-03T01:09:20.974Z,25.05
2016-11-03T01:10:18.838Z,25.02
2016-11-03T01:11:19.545Z,24.93
2016-11-03T01:12:21.031Z,25.03
2016-11-03T01:13:18.959Z,24.93
2016-11-03T01:14:18.506Z,25.06
2016-11-03T01:15:19.935Z,25.02
2016-11-03T01:16:21.233Z,25
2016-11-03T01:17:19.873Z,24.98
2016-11-03T01:18:19.356Z,24.98
2016-11-03T01:19:19.213Z,25.08
2016-11-03T01:20:19.943Z,25.02
2016-11-03T01:21:19.355Z,25.05
2016-11-03T01:22:19.325Z,25.08
2016-11-03T01:23:20.119Z,25.1
2016-11-03T01:24:18.261Z,25.03
2016-11-03T01:25:19.185Z,25.05
2016-11-03T01:26:18.754Z,25.05
2016-11-03T01:27:19.600Z,25.13
2016-11-03T01:28:19.565Z,25.09
2016-11-03T01:29:20.781Z,25.09
2016-11-03T01:30:19.669Z,25.13
2016-11-03T01:31:19.850Z,25.05
2016-11-03T01:32:18.736Z,25.09
2016-11-03T01:33:19.730Z,25.08
2016-11-03T01:34:19.699Z,25.06
2016-11-03T01:35:20.587Z,25.08
2016-11-03T01:36:19.969Z,25.05
2016-11-03T01:37:20.044Z,25.03
2016-11-03T01:38:20.904Z,25.09
2016-11-03T01:39:18.369Z,25.09
2016-11-03T01:40:19.857Z,25.05
2016-11-03T01:41:20.793Z,25
2016-11-03T01:42:19.596Z,25.08
2016-11-03T01:43:20.006Z,25.05
2016-11-03T01:44:19.546Z,25
2016-11-03T01:45:20.220Z,25.09
2016-11-03T01:46:19.744Z,25.05
2016-11-03T01:47:19.351Z,25.08
2016-11-03T01:48:18.975Z,25.06
2016-11-03T01:49:20.255Z,25.08
2016-11-03T01:50:19.836Z,25.06
2016-11-03T01:51:20.580Z,25.08
2016-11-03T01:52:19.939Z,24.99
2016-11-03T01:53:21.288Z,25.02
2016-11-03T01:54:20.704Z,25.05
2016-11-03T01:55:20.070Z,25.05
2016-11-03T01:56:19.646Z,25.02
2016-11-03T01:57:20.826Z,25.08
2016-11-03T01:58:20.185Z,24.96
2016-11-03T01:59:19.978Z,25.08
2016-11-03T02:00:19.205Z,25
2016-11-03T02:01:18.827Z,24.98
2016-11-03T02:02:19.825Z,25.05
2016-11-03T02:03:21.073Z,25.08
2016-11-03T02:04:18.942Z,25.13
2016-11-03T02:05:19.673Z,25.09
2016-11-03T02:06:19.853Z,25.05
2016-11-03T02:07:19.066Z,25.15
2016-11-03T02:08:19.910Z,25.06
2016-11-03T02:09:19.980Z,25.05
2016-11-03T02:10:19.186Z,25
2016-11-03T02:11:20.105Z,24.98
2016-11-03T02:12:19.746Z,25.05
2016-11-03T02:13:20.736Z,25.02
2016-11-03T02:14:20.043Z,24.99
2016-11-03T02:15:21.540Z,24.99
2016-11-03T02:16:20.905Z,24.99
2016-11-03T02:17:18.638Z,24.99
2016-11-03T02:18:19.831Z,25.03
2016-11-03T02:19:21.044Z,24.99
2016-11-03T02:20:19.024Z,24.99
2016-11-03T02:21:20.196Z,25
2016-11-03T02:22:21.093Z,25
2016-11-03T02:23:20.409Z,25.05
2016-11-03T02:24:21.980Z,25
2016-11-03T02:25:21.290Z,25.03
2016-11-03T02:26:21.071Z,25
2016-11-03T02:27:20.020Z,25.02
2016-11-03T02:28:20.021Z,25.05
2016-11-03T02:29:20.752Z,25.08
2016-11-03T02:30:20.410Z,25.05
2016-11-03T02:31:21.586Z,25.06
2016-11-03T02:32:20.873Z,25.09
2016-11-03T02:33:20.631Z,25.09
2016-11-03T02:34:20.183Z,25.06
2016-11-03T02:35:19.678Z,25.08
2016-11-03T02:36:20.424Z,25.09
2016-11-03T02:37:20.242Z,25.02
2016-11-03T02:38:19.702Z,25.06
2016-11-03T02:39:19.118Z,25.06
2016-11-03T02:40:19.980Z,25.1
2016-11-03T02:41:19.822Z,25.18
2016-11-03T02:42:20.621Z,25.08
2016-11-03T02:43:20.415Z,25.02
2016-11-03T02:44:21.382Z,25.05
2016-11-03T02:45:19.286Z,25.14
2016-11-03T02:46:22.148Z,25.06
2016-11-03T02:47:20.065Z,25.2
2016-11-03T02:48:19.435Z,25.09
2016-11-03T02:49:20.545Z,25.09
2016-11-03T02:50:21.631Z,25.05
2016-11-03T02:51:20.987Z,25.06
2016-11-03T02:52:20.309Z,25.14
2016-11-03T02:53:20.365Z,25.09
2016-11-03T02:54:21.113Z,25.09
2016-11-03T02:55:19.242Z,25.06
2016-11-03T02:56:20.299Z,25.03
2016-11-03T02:57:21.212Z,25.13
2016-11-03T02:58:18.939Z,25.1
2016-11-03T02:59:20.075Z,25.06
2016-11-03T03:00:19.925Z,25.13
2016-11-03T03:01:19.268Z,25.09
2016-11-03T03:02:20.510Z,25.05
2016-11-03T03:03:20.038Z,25.09
2016-11-03T03:04:19.356Z,25.03
2016-11-03T03:05:20.319Z,25.08
2016-11-03T03:06:22.019Z,25.08
2016-11-03T03:07:19.471Z,25.08
2016-11-03T03:08:20.820Z,25.05
2016-11-03T03:09:20.025Z,25.03
2016-11-03T03:10:19.382Z,25
2016-11-03T03:11:20.394Z,25.09
2016-11-03T03:12:20.196Z,25.03
2016-11-03T03:13:21.204Z,25.08
2016-11-03T03:14:19.365Z,25.06
2016-11-03T03:15:20.426Z,25
2016-11-03T03:16:21.329Z,25.05
2016-11-03T03:17:19.390Z,25.14
2016-11-03T03:18:20.220Z,25.02
2016-11-03T03:19:21.885Z,25.1
2016-11-03T03:20:19.409Z,25.09
2016-11-03T03:21:20.528Z,25.08
2016-11-03T03:22:21.572Z,25.08
2016-11-03T03:23:19.134Z,25
2016-11-03T03:24:20.291Z,25.03
2016-11-03T03:25:20.261Z,24.99
2016-11-03T03:26:19.564Z,25.08
2016-11-03T03:27:20.584Z,25.08
2016-11-03T03:28:20.379Z,25.08
2016-11-03T03:29:21.062Z,25
2016-11-03T03:30:19.164Z,25
2016-11-03T03:31:20.245Z,25.02
2016-11-03T03:32:19.860Z,25.1
2016-11-03T03:33:20.602Z,25.08
2016-11-03T03:34:20.869Z,24.99
2016-11-03T03:35:19.990Z,25
2016-11-03T03:36:19.207Z,25
2016-11-03T03:37:20.586Z,24.99
2016-11-03T03:38:21.546Z,24.99
2016-11-03T03:39:20.850Z,24.99
2016-11-03T03:40:20.616Z,24.96
2016-11-03T03:41:22.153Z,25
2016-11-03T03:42:19.563Z,25
2016-11-03T03:43:20.506Z,25.08
2016-11-03T03:44:20.355Z,25.03
2016-11-03T03:45:19.365Z,25.02
2016-11-03T03:46:20.946Z,25.05
2016-11-03T03:47:20.479Z,25.05
2016-11-03T03:48:21.157Z,24.98
2016-11-03T03:49:19.301Z,25.02
2016-11-03T03:50:22.039Z,25.09
2016-11-03T03:51:19.646Z,25.1
2016-11-03T03:52:19.369Z,25.09
2016-11-03T03:53:20.777Z,25.06
2016-11-03T03:54:19.718Z,25.06
2016-11-03T03:55:19.653Z,25.06
2016-11-03T03:56:20.482Z,25.09
2016-11-03T03:57:20.196Z,25.06
2016-11-03T03:58:19.727Z,25.08
2016-11-03T03:59:20.796Z,25.08
2016-11-03T04:00:20.062Z,25.09
2016-11-03T04:01:21.248Z,25.03
2016-11-03T04:02:20.604Z,25.08
2016-11-03T04:03:20.138Z,25.08
2016-11-03T04:04:19.443Z,25.13
2016-11-03T04:05:20.727Z,25.1
2016-11-03T04:06:22.009Z,25.05
2016-11-03T04:07:19.885Z,25.09
2016-11-03T04:08:19.434Z,25.08
2016-11-03T04:09:20.791Z,25.06
2016-11-03T04:10:21.491Z,25.08
2016-11-03T04:11:20.846Z,25.13
2016-11-03T04:12:22.216Z,25.09
2016-11-03T04:13:20.178Z,25.13
2016-11-03T04:14:21.343Z,25.09
2016-11-03T04:15:20.847Z,25.1
2016-11-03T04:16:19.984Z,25.08
2016-11-03T04:17:21.091Z,25.13
2016-11-03T04:18:20.888Z,25.09
2016-11-03T04:19:20.108Z,25.02
2016-11-03T04:20:19.836Z,25.06
2016-11-03T04:21:21.011Z,25.02
2016-11-03T04:22:20.694Z,25.06
2016-11-03T04:23:21.711Z,25.08
2016-11-03T04:24:20.697Z,25.02
2016-11-03T04:25:22.104Z,25
2016-11-03T04:26:19.976Z,25.02
2016-11-03T04:27:20.946Z,25
2016-11-03T04:28:20.835Z,25
2016-11-03T04:29:21.583Z,25.05
2016-11-03T04:30:21.265Z,25
2016-11-03T04:31:20.990Z,25.02
2016-11-03T04:32:20.271Z,25.02
2016-11-03T04:33:20.990Z,24.99
2016-11-03T04:34:22.914Z,24.93
2016-11-03T04:35:20.076Z,24.99
2016-11-03T04:36:21.203Z,24.99
2016-11-03T04:37:21.317Z,24.95
2016-11-03T04:38:20.516Z,24.99
2016-11-03T04:39:21.309Z,24.99
2016-11-03T04:40:20.790Z,24.95
2016-11-03T04:41:20.634Z,25.02
2016-11-03T04:42:19.991Z,25.02
2016-11-03T04:43:20.915Z,24.96
2016-11-03T04:44:20.443Z,24.93
2016-11-03T04:45:19.761Z,25.02
2016-11-03T04:46:20.914Z,24.91
2016-11-03T04:47:22.735Z,24.91
2016-11-03T04:48:21.564Z,24.99
2016-11-03T04:49:21.466Z,24.93
2016-11-03T04:50:22.443Z,24.91
2016-11-03T04:51:20.104Z,25
2016-11-03T04:52:21.159Z,24.99
2016-11-03T04:53:20.865Z,24.9
2016-11-03T04:54:20.513Z,24.96
2016-11-03T04:55:20.082Z,24.99
2016-11-03T04:56:23.169Z,24.99
2016-11-03T04:57:22.050Z,24.99
2016-11-03T04:58:20.109Z,24.95
2016-11-03T04:59:21.167Z,24.93
2016-11-03T05:00:20.732Z,25
2016-11-03T05:01:19.823Z,24.96
2016-11-03T05:02:21.011Z,24.93
2016-11-03T05:03:20.856Z,25.02
2016-11-03T05:04:20.211Z,24.96
2016-11-03T05:05:21.445Z,24.95
2016-11-03T05:06:20.981Z,24.99
2016-11-03T05:07:21.772Z,25.03
2016-11-03T05:08:21.130Z,24.93
2016-11-03T05:09:21.099Z,25
2016-11-03T05:10:20.458Z,24.98
2016-11-03T05:11:21.254Z,25.05
2016-11-03T05:12:21.276Z,24.98
2016-11-03T05:13:20.216Z,24.98
2016-11-03T05:14:21.576Z,24.98
2016-11-03T05:15:21.327Z,25.03
2016-11-03T05:16:20.707Z,24.99
2016-11-03T05:17:20.237Z,25
2016-11-03T05:18:21.354Z,25
2016-11-03T05:19:20.825Z,24.93
2016-11-03T05:20:21.621Z,25.02
2016-11-03T05:21:21.416Z,25.06
2016-11-03T05:22:20.966Z,24.99
2016-11-03T05:23:21.659Z,24.96
2016-11-03T05:24:21.103Z,25.02
2016-11-03T05:25:21.072Z,25
2016-11-03T05:26:20.118Z,25.02
2016-11-03T05:27:21.347Z,25.05
2016-11-03T05:28:20.881Z,25.02
2016-11-03T05:29:20.502Z,25.02
2016-11-03T05:30:21.350Z,24.99
2016-11-03T05:31:21.516Z,25
2016-11-03T05:32:20.671Z,25.05
2016-11-03T05:33:21.454Z,25.02
2016-11-03T05:34:21.547Z,24.99
2016-11-03T05:35:20.795Z,25
2016-11-03T05:36:21.593Z,25.06
2016-11-03T05:37:21.514Z,24.99
2016-11-03T05:38:22.333Z,25.03
2016-11-03T05:39:20.087Z,24.9
2016-11-03T05:40:23.130Z,24.95
2016-11-03T05:41:21.045Z,25
2016-11-03T05:42:22.596Z,25.05
2016-11-03T05:43:21.632Z,25
2016-11-03T05:44:21.216Z,25.08
2016-11-03T05:45:20.161Z,25
2016-11-03T05:46:20.134Z,25.05
2016-11-03T05:47:21.287Z,25.08
2016-11-03T05:48:20.335Z,25.06
2016-11-03T05:49:21.443Z,25
2016-11-03T05:50:22.852Z,25.09
2016-11-03T05:51:22.152Z,25.03
2016-11-03T05:52:21.847Z,25.06
2016-11-03T05:53:23.291Z,25.15
2016-11-03T05:54:20.892Z,25.08
2016-11-03T05:55:21.574Z,24.99
2016-11-03T05:56:21.355Z,25.05
2016-11-03T05:57:22.456Z,24.99
2016-11-03T05:58:20.564Z,25.02
2016-11-03T05:59:50.514Z,25
2016-11-03T06:00:21.357Z,25.03
2016-11-03T06:01:21.934Z,25.02
2016-11-03T06:02:21.727Z,25.03
2016-11-03T06:03:20.944Z,25
2016-11-03T06:04:20.260Z,25.05
2016-11-03T06:05:21.336Z,24.95
2016-11-03T06:06:22.823Z,25.02
2016-11-03T06:07:20.691Z,24.95
2016-11-03T06:08:21.659Z,24.93
2016-11-03T06:09:21.510Z,25.06
2016-11-03T06:10:20.552Z,24.99
2016-11-03T06:11:20.308Z,24.91
2016-11-03T06:12:21.417Z,24.95
2016-11-03T06:13:22.425Z,25
2016-11-03T06:14:21.789Z,24.96
2016-11-03T06:15:23.704Z,25
2016-11-03T06:16:22.528Z,25
2016-11-03T06:17:20.712Z,25
2016-11-03T06:18:22.051Z,24.96
2016-11-03T06:19:21.283Z,25
2016-11-03T06:20:20.690Z,25.05
2016-11-03T06:21:22.104Z,24.95
2016-11-03T06:22:22.772Z,24.96
2016-11-03T06:23:20.710Z,24.95
2016-11-03T06:24:22.014Z,24.95
2016-11-03T06:25:21.474Z,24.96
2016-11-03T06:26:20.936Z,24.95
2016-11-03T06:27:22.070Z,24.95
2016-11-03T06:28:21.599Z,24.95
2016-11-03T06:29:20.957Z,24.93
2016-11-03T06:30:21.756Z,25
2016-11-03T06:31:23.163Z,24.83
2016-11-03T06:32:22.501Z,24.99
2016-11-03T06:33:21.879Z,24.9
2016-11-03T06:34:23.332Z,24.91
2016-11-03T06:35:22.810Z,24.91
2016-11-03T06:36:20.483Z,24.98
2016-11-03T06:37:21.854Z,24.93
2016-11-03T06:38:21.010Z,24.84
2016-11-03T06:39:20.817Z,24.96
2016-11-03T06:40:21.892Z,24.95
2016-11-03T06:41:21.463Z,24.91
2016-11-03T06:42:20.525Z,24.87
2016-11-03T06:43:21.964Z,24.95
2016-11-03T06:44:21.575Z,24.99
2016-11-03T06:45:22.253Z,24.96
2016-11-03T06:46:23.714Z,24.99
2016-11-03T06:47:23.134Z,24.98
2016-11-03T06:48:22.555Z,24.98
2016-11-03T06:49:20.579Z,24.91
2016-11-03T06:50:21.819Z,24.85
2016-11-03T06:51:21.126Z,24.95
2016-11-03T06:52:20.597Z,24.96
2016-11-03T06:53:21.625Z,25
2016-11-03T06:54:21.301Z,24.9
2016-11-03T06:55:21.981Z,24.96
2016-11-03T06:56:21.993Z,24.91
2016-11-03T06:57:23.299Z,24.87
2016-11-03T06:58:20.953Z,24.98
2016-11-03T06:59:22.117Z,25.03
2016-11-03T07:00:22.983Z,24.99
2016-11-03T07:01:20.977Z,24.91
2016-11-03T07:02:22.053Z,24.95
2016-11-03T07:03:23.155Z,24.98
2016-11-03T07:04:22.464Z,24.95
2016-11-03T07:05:22.046Z,24.95
2016-11-03T07:06:21.546Z,24.91
2016-11-03T07:07:21.102Z,24.96
2016-11-03T07:08:22.068Z,24.81
2016-11-03T07:09:21.964Z,24.83
2016-11-03T07:10:22.709Z,24.91
2016-11-03T07:11:22.116Z,24.9
2016-11-03T07:12:22.037Z,24.91
2016-11-03T07:13:21.344Z,24.87
2016-11-03T07:14:22.195Z,24.95
2016-11-03T07:15:23.596Z,24.83
2016-11-03T07:16:22.953Z,24.87
2016-11-03T07:17:22.752Z,24.93
2016-11-03T07:18:22.283Z,24.95
2016-11-03T07:19:21.638Z,24.93
2016-11-03T07:20:22.435Z,24.88
2016-11-03T07:21:23.956Z,24.83
2016-11-03T07:22:21.765Z,24.83
2016-11-03T07:23:22.538Z,24.91
2016-11-03T07:24:21.915Z,24.88
2016-11-03T07:25:23.321Z,24.85
2016-11-03T07:26:21.192Z,24.84
2016-11-03T07:27:22.037Z,24.9
2016-11-03T07:28:22.154Z,24.87
2016-11-03T07:29:21.314Z,24.84
2016-11-03T07:30:22.268Z,24.81
2016-11-03T07:31:23.564Z,24.85
2016-11-03T07:32:21.433Z,24.84
2016-11-03T07:33:22.565Z,24.98
2016-11-03T07:34:22.300Z,25
2016-11-03T07:35:23.044Z,25.2
2016-11-03T07:36:20.906Z,25.42
2016-11-03T07:37:22.378Z,25.5
2016-11-03T07:38:21.414Z,25.64
2016-11-03T07:39:22.698Z,25.77
2016-11-03T07:40:36.886Z,26.02
2016-11-03T07:41:23.292Z,26.12
2016-11-03T07:42:21.261Z,26.37
2016-11-03T07:43:22.177Z,26.54
2016-11-03T07:44:21.974Z,26.66
2016-11-03T07:45:22.772Z,26.88
2016-11-03T07:46:22.565Z,26.94
2016-11-03T07:47:22.094Z,27.12
2016-11-03T07:48:22.778Z,27.1
2016-11-03T07:49:22.694Z,27.17
2016-11-03T07:50:25.662Z,27.1
2016-11-03T07:51:22.954Z,27.27
2016-11-03T07:52:21.074Z,27.4
2016-11-03T07:53:22.080Z,27.5
2016-11-03T07:54:23.136Z,27.59
2016-11-03T07:55:22.495Z,27.78
2016-11-03T07:56:22.202Z,27.84
2016-11-03T07:57:23.234Z,27.87
2016-11-03T07:58:23.037Z,27.84
2016-11-03T07:59:22.129Z,27.9
2016-11-03T08:00:21.945Z,27.99
2016-11-03T08:01:21.182Z,27.99
2016-11-03T08:02:22.528Z,27.94
2016-11-03T08:03:23.565Z,28.07
2016-11-03T08:04:21.098Z,28.09
2016-11-03T08:05:22.825Z,28.07
2016-11-03T08:06:21.872Z,28.17
2016-11-03T08:07:22.865Z,28.22
2016-11-03T08:08:22.389Z,28.18
2016-11-03T08:09:23.742Z,28.18
2016-11-03T08:10:22.987Z,28.19
2016-11-03T08:11:22.461Z,28.12
2016-11-03T08:12:22.528Z,28.21
2016-11-03T08:13:21.838Z,28.21
2016-11-03T08:14:23.413Z,28.12
2016-11-03T08:15:22.604Z,28.18
2016-11-03T08:16:21.908Z,28.22
2016-11-03T08:17:22.712Z,28.18
2016-11-03T08:18:22.624Z,28.19
2016-11-03T08:19:21.716Z,28.19
2016-11-03T08:20:22.829Z,28.22
2016-11-03T08:21:22.591Z,28.24
2016-11-03T08:22:23.566Z,28.22
2016-11-03T08:23:23.354Z,28.24
2016-11-03T08:24:22.743Z,28.27
2016-11-03T08:25:23.710Z,28.19
2016-11-03T08:26:22.963Z,28.31
2016-11-03T08:27:24.416Z,28.22
2016-11-03T08:28:22.396Z,28.3
2016-11-03T08:29:21.705Z,28.29
2016-11-03T08:30:22.552Z,28.33
2016-11-03T08:31:22.517Z,28.25
2016-11-03T08:32:21.581Z,28.34
2016-11-03T08:33:21.312Z,28.31
2016-11-03T08:34:22.629Z,28.36
2016-11-03T08:35:21.949Z,28.34
2016-11-03T08:36:24.894Z,28.31
2016-11-03T08:37:22.502Z,28.41
2016-11-03T08:38:22.126Z,28.34
2016-11-03T08:39:21.725Z,28.33
2016-11-03T08:40:22.839Z,28.44
2016-11-03T08:41:22.247Z,28.33
2016-11-03T08:42:23.041Z,28.29
2016-11-03T08:43:22.885Z,28.18
2016-11-03T08:44:23.822Z,28.04
2016-11-03T08:45:21.460Z,28
2016-11-03T08:46:22.956Z,28.02
2016-11-03T08:47:22.727Z,28.07
2016-11-03T08:48:21.526Z,28.15
2016-11-03T08:49:22.786Z,28.18
2016-11-03T08:50:22.347Z,28.18
2016-11-03T08:51:21.924Z,28.22
2016-11-03T08:52:22.923Z,28.3
2016-11-03T08:53:24.147Z,28.24
2016-11-03T08:54:23.416Z,28.27
2016-11-03T08:55:21.566Z,28.33
2016-11-03T08:56:24.301Z,28.17
2016-11-03T08:57:22.266Z,28.17
2016-11-03T08:58:23.450Z,28.07
2016-11-03T08:59:22.874Z,28.17
2016-11-03T09:00:22.344Z,28.24
2016-11-03T09:01:21.524Z,28.22
2016-11-03T09:02:22.896Z,28.21
2016-11-03T09:03:22.462Z,28.25
2016-11-03T09:04:21.860Z,28.29
2016-11-03T09:05:22.617Z,28.18
2016-11-03T09:06:24.003Z,28.22
2016-11-03T09:07:23.382Z,28.19
2016-11-03T09:08:23.228Z,28.18
2016-11-03T09:09:24.669Z,28.15
2016-11-03T09:10:23.388Z,28.25
2016-11-03T09:11:23.348Z,28.14
2016-11-03T09:12:22.883Z,28.21
2016-11-03T09:13:21.880Z,28.17
2016-11-03T09:14:23.342Z,28.19
2016-11-03T09:15:22.956Z,28.21
2016-11-03T09:16:23.633Z,28.18
2016-11-03T09:17:23.023Z,28.09
2016-11-03T09:18:23.122Z,28.04
2016-11-03T09:19:23.872Z,27.87
2016-11-03T09:20:22.015Z,27.87
2016-11-03T09:21:23.344Z,27.85
2016-11-03T09:22:23.994Z,27.92
2016-11-03T09:23:22.008Z,27.97
2016-11-03T09:24:22.832Z,27.93
2016-11-03T09:25:24.117Z,27.9
2016-11-03T09:26:22.028Z,28.09
2016-11-03T09:27:22.792Z,28.14
2016-11-03T09:28:24.236Z,28.09
2016-11-03T09:29:24.080Z,28.14
2016-11-03T09:30:21.752Z,28.12
2016-11-03T09:31:22.971Z,28.15
2016-11-03T09:32:22.243Z,28.07
2016-11-03T09:33:23.497Z,28.09
2016-11-03T09:34:23.064Z,28.14
2016-11-03T09:35:22.042Z,28.15
2016-11-03T09:36:23.209Z,28.19
2016-11-03T09:37:23.280Z,28.21
2016-11-03T09:38:22.482Z,28.27
2016-11-03T09:39:22.134Z,28.22
2016-11-03T09:40:24.728Z,28.22
2016-11-03T09:41:22.645Z,28.15
2016-11-03T09:42:23.552Z,28.15
2016-11-03T09:43:23.238Z,28.27
2016-11-03T09:44:22.769Z,28.17
2016-11-03T09:45:21.858Z,28.19
2016-11-03T09:46:23.247Z,28.24
2016-11-03T09:47:22.933Z,28.12
2016-11-03T09:48:22.232Z,28.19
2016-11-03T09:49:23.182Z,28.21
2016-11-03T09:50:23.014Z,28.11
2016-11-03T09:51:24.671Z,28.14
2016-11-03T09:52:23.180Z,28.11
2016-11-03T09:53:24.676Z,28.09
2016-11-03T09:54:22.509Z,28.12
2016-11-03T09:55:23.428Z,28.09
2016-11-03T09:56:22.948Z,28.17
2016-11-03T09:57:22.650Z,28.15
2016-11-03T09:58:23.344Z,28.14
2016-11-03T09:59:24.825Z,28.14
2016-11-03T10:00:22.428Z,28.14
2016-11-03T10:01:21.981Z,28.15
2016-11-03T10:02:25.218Z,28.14
2016-11-03T10:03:22.919Z,28.15
2016-11-03T10:04:25.596Z,28.09
2016-11-03T10:05:23.460Z,28.11
2016-11-03T10:06:23.048Z,28.06
2016-11-03T10:07:23.788Z,28.12
2016-11-03T10:08:23.093Z,28.09
2016-11-03T10:09:23.426Z,28.15
2016-11-03T10:10:22.522Z,28.06
2016-11-03T10:11:23.392Z,28.03
2016-11-03T10:12:24.674Z,28
2016-11-03T10:13:24.031Z,27.97
2016-11-03T10:14:23.391Z,27.93
2016-11-03T10:15:24.797Z,28.09
2016-11-03T10:16:24.155Z,28.07
2016-11-03T10:17:22.166Z,28.07
2016-11-03T10:18:24.920Z,28.03
2016-11-03T10:19:22.793Z,28.02
2016-11-03T10:20:23.637Z,28.06
2016-11-03T10:21:23.824Z,28.03
2016-11-03T10:22:22.961Z,27.97
2016-11-03T10:23:23.761Z,28
2016-11-03T10:24:23.766Z,27.97
2016-11-03T10:25:24.497Z,27.92
2016-11-03T10:26:23.858Z,27.97
2016-11-03T10:27:23.576Z,27.93
2016-11-03T10:28:24.646Z,28.04
2016-11-03T10:29:22.521Z,27.96
2016-11-03T10:30:23.484Z,27.99
2016-11-03T10:31:24.771Z,28.03
2016-11-03T10:32:22.691Z,27.87
2016-11-03T10:33:23.921Z,27.99
2016-11-03T10:34:24.892Z,27.96
2016-11-03T10:35:24.317Z,27.88
2016-11-03T10:36:22.262Z,27.94
2016-11-03T10:37:23.572Z,27.99
2016-11-03T10:38:22.933Z,28
2016-11-03T10:39:23.685Z,27.84
2016-11-03T10:40:23.800Z,27.79
2016-11-03T10:41:23.058Z,27.85
2016-11-03T10:42:23.855Z,27.87
2016-11-03T10:43:23.692Z,27.84
2016-11-03T10:44:24.596Z,27.87
2016-11-03T10:45:23.977Z,27.84
2016-11-03T10:46:25.383Z,27.9
2016-11-03T10:47:23.042Z,27.9
2016-11-03T10:48:26.196Z,27.81
2016-11-03T10:49:23.739Z,27.87
2016-11-03T10:50:23.426Z,27.84
2016-11-03T10:51:22.424Z,27.84
2016-11-03T10:52:24.066Z,27.81
2016-11-03T10:53:23.598Z,27.85
2016-11-03T10:54:24.230Z,27.88
2016-11-03T10:55:24.084Z,27.88
2016-11-03T10:56:25.046Z,27.9
2016-11-03T10:57:24.474Z,27.9
2016-11-03T10:58:22.436Z,27.84
2016-11-03T10:59:25.201Z,27.85
2016-11-03T11:00:25.206Z,27.81
2016-11-03T11:01:24.433Z,27.97
2016-11-03T11:02:23.515Z,27.97
2016-11-03T11:03:23.271Z,27.79
2016-11-03T11:04:22.787Z,27.97
2016-11-03T11:05:23.913Z,28
2016-11-03T11:06:24.838Z,27.87
2016-11-03T11:07:22.511Z,27.92
2016-11-03T11:08:25.650Z,27.92
2016-11-03T11:09:23.569Z,27.82
2016-11-03T11:10:22.839Z,27.99
2016-11-03T11:11:24.161Z,27.92
2016-11-03T11:12:23.656Z,27.94
2016-11-03T11:13:24.324Z,27.94
2016-11-03T11:14:23.920Z,27.92
2016-11-03T11:15:23.813Z,27.81
2016-11-03T11:16:24.812Z,27.97
2016-11-03T11:17:24.009Z,28.04
2016-11-03T11:18:23.935Z,27.94
2016-11-03T11:19:24.646Z,28.12
2016-11-03T11:20:24.626Z,27.99
2016-11-03T11:21:25.651Z,27.84
2016-11-03T11:22:24.807Z,28
2016-11-03T11:23:22.974Z,27.93
2016-11-03T11:24:23.773Z,27.9
2016-11-03T11:25:24.930Z,28.04
2016-11-03T11:26:22.650Z,27.93
2016-11-03T11:27:23.771Z,27.94
2016-11-03T11:28:25.055Z,27.82
2016-11-03T11:29:22.672Z,27.75
2016-11-03T11:30:25.766Z,27.77
2016-11-03T11:31:23.739Z,27.62
2016-11-03T11:32:23.348Z,27.62
2016-11-03T11:33:24.015Z,27.7
2016-11-03T11:34:25.298Z,27.7
2016-11-03T11:35:22.869Z,27.62
2016-11-03T11:36:24.407Z,27.72
2016-11-03T11:37:24.082Z,27.79
2016-11-03T11:38:23.399Z,27.78
2016-11-03T11:39:22.798Z,27.75
2016-11-03T11:40:25.542Z,27.84
2016-11-03T11:41:26.998Z,27.87
2016-11-03T11:42:24.144Z,27.84
2016-11-03T11:43:23.880Z,27.84
2016-11-03T11:44:23.589Z,27.79
2016-11-03T11:45:24.383Z,27.85
2016-11-03T11:46:24.457Z,27.87
2016-11-03T11:47:25.121Z,27.82
2016-11-03T11:48:24.506Z,27.85
2016-11-03T11:49:23.986Z,27.85
2016-11-03T11:50:25.269Z,27.78
2016-11-03T11:51:23.204Z,27.87
2016-11-03T11:52:25.997Z,27.81
2016-11-03T11:53:23.641Z,27.85
2016-11-03T11:54:22.961Z,27.87
2016-11-03T11:55:24.546Z,27.84
2016-11-03T11:56:25.514Z,27.87
2016-11-03T11:57:23.082Z,27.85
2016-11-03T11:58:24.356Z,27.84
2016-11-03T11:59:24.296Z,27.78
2016-11-03T12:00:23.244Z,27.85
2016-11-03T12:01:24.883Z,27.92
2016-11-03T12:02:24.421Z,27.84
2016-11-03T12:03:27.138Z,27.84
2016-11-03T12:04:24.364Z,27.82
2016-11-03T12:05:26.301Z,27.87
2016-11-03T12:06:23.494Z,27.85
2016-11-03T12:07:24.600Z,27.92
2016-11-03T12:08:24.424Z,27.82
2016-11-03T12:09:23.976Z,27.92
2016-11-03T12:10:22.984Z,27.78
2016-11-03T12:11:24.516Z,27.9
2016-11-03T12:12:24.069Z,27.92
2016-11-03T12:13:23.406Z,27.85
2016-11-03T12:14:24.645Z,27.92
2016-11-03T12:15:25.611Z,27.97
2016-11-03T12:16:23.527Z,27.85
2016-11-03T12:17:24.328Z,27.85
2016-11-03T12:18:24.340Z,27.93
2016-11-03T12:19:25.093Z,27.99
2016-11-03T12:20:23.065Z,27.96
2016-11-03T12:21:24.209Z,27.84
2016-11-03T12:22:25.216Z,27.84
2016-11-03T12:23:24.747Z,27.92
2016-11-03T12:24:24.771Z,27.87
2016-11-03T12:25:25.712Z,27.99
2016-11-03T12:26:23.426Z,27.87
2016-11-03T12:27:24.495Z,27.84
2016-11-03T12:28:25.460Z,27.97
2016-11-03T12:29:24.882Z,27.85
2016-11-03T12:30:24.696Z,27.93
2016-11-03T12:31:25.584Z,27.88
2016-11-03T12:32:23.472Z,27.92
2016-11-03T12:33:24.788Z,27.97
2016-11-03T12:34:26.462Z,27.87
2016-11-03T12:35:25.113Z,27.81
2016-11-03T12:36:25.158Z,27.82
2016-11-03T12:37:25.828Z,27.9
2016-11-03T12:38:25.146Z,28
2016-11-03T12:39:24.546Z,27.97
2016-11-03T12:40:24.561Z,27.9
2016-11-03T12:41:25.225Z,27.92
2016-11-03T12:42:23.249Z,27.96
2016-11-03T12:43:24.733Z,27.99
2016-11-03T12:44:24.045Z,27.92
2016-11-03T12:45:24.792Z,28.06
2016-11-03T12:46:24.710Z,27.82
2016-11-03T12:47:25.554Z,27.96
2016-11-03T12:48:23.595Z,27.88
2016-11-03T12:49:26.321Z,27.9
2016-11-03T12:50:23.926Z,27.84
2016-11-03T12:51:23.720Z,27.93
2016-11-03T12:52:24.676Z,27.87
2016-11-03T12:53:25.803Z,27.81
2016-11-03T12:54:25.048Z,27.82
2016-11-03T12:55:24.521Z,27.85
2016-11-03T12:56:25.903Z,27.79
2016-11-03T12:57:23.798Z,27.85
2016-11-03T12:58:24.612Z,27.85
2016-11-03T12:59:26.051Z,27.92